Time;durP1;ratioP1;P1;durP2;ratioP2;P2;SDS_P1;SDS_P2;PMS_P1;PMS_P2;Temp;Humidity;BMP_temperature;BMP_pressure;BME280_temperature;BME280_humidity;BME280_pressure;Samples;Min_cycle;Max_cycle;Signal;HPM_P1;HPM_P2
2023/08/25 00:02:28;;;;;;;4.80;2.53;;;19.70;99.90;;;20.56;100.00;97624.97;10428991;28;20734;-78
2023/08/25 00:07:32;;;;;;;2.78;2.50;;;19.70;99.90;;;20.57;100.00;97618.91;10438073;28;20229;-79
2023/08/25 00:12:36;;;;;;;2.97;2.58;;;19.70;99.90;;;20.48;100.00;97613.56;10432238;28;20225;-78
2023/08/25 00:17:39;;;;;;;3.05;2.40;;;19.60;99.90;;;20.38;100.00;97606.50;10429336;28;20803;-79
2023/08/25 00:22:44;;;;;;;4.80;2.50;;;19.60;99.90;;;20.48;100.00;97618.75;10426841;28;20340;-79
2023/08/25 00:27:47;;;;;;;4.07;2.58;;;19.60;99.90;;;20.40;100.00;97617.78;10429732;28;20225;-78
2023/08/25 00:32:51;;;;;;;2.70;2.50;;;19.50;99.90;;;20.19;100.00;97626.13;10424741;28;20217;-78
2023/08/25 00:37:55;;;;;;;2.47;2.30;;;19.30;99.90;;;20.07;100.00;97632.00;10427701;28;20232;-79
2023/08/25 00:42:58;;;;;;;4.03;2.55;;;19.30;99.90;;;20.03;100.00;97625.03;10426122;28;20225;-76
2023/08/25 00:48:02;;;;;;;3.83;2.55;;;19.20;99.90;;;20.16;100.00;97615.69;10431149;28;20228;-78
2023/08/25 00:53:07;;;;;;;2.67;2.47;;;19.30;99.90;;;19.73;100.00;97617.59;10438635;28;20307;-79
2023/08/25 00:58:13;;;;;;;3.55;2.80;;;19.00;99.90;;;19.70;100.00;97604.59;10421321;28;20225;-78
2023/08/25 01:03:17;;;;;;;4.65;2.75;;;19.00;99.90;;;19.61;100.00;97596.63;10437119;28;20229;-79
2023/08/25 01:08:22;;;;;;;3.08;2.78;;;18.80;99.90;;;19.55;100.00;97599.97;10431094;28;20251;-80
2023/08/25 01:13:32;;;;;;;2.80;2.60;;;18.90;99.90;;;19.65;100.00;97594.13;10426105;28;20228;-76
2023/08/25 01:18:37;;;;;;;3.13;2.72;;;18.90;99.90;;;19.70;100.00;97600.25;10434150;28;20312;-78
2023/08/25 01:23:54;;;;;;;3.58;2.60;;;18.90;99.90;;;19.74;100.00;97596.00;10432643;28;20225;-79
2023/08/25 01:28:59;;;;;;;3.30;3.00;;;19.00;99.90;;;19.69;100.00;97603.72;10432811;28;20231;-78
2023/08/25 01:34:02;;;;;;;3.65;2.55;;;18.90;99.90;;;19.70;100.00;97600.25;10423659;28;20480;-80
2023/08/25 01:39:11;;;;;;;3.90;2.75;;;19.00;99.90;;;19.72;100.00;97608.09;10430633;28;20239;-79
2023/08/25 01:44:20;;;;;;;3.45;2.95;;;18.90;99.90;;;19.71;100.00;97602.00;10438746;28;20854;-78
2023/08/25 01:49:25;;;;;;;3.75;2.67;;;18.90;99.90;;;19.70;100.00;97605.44;10432608;28;20311;-79
2023/08/25 01:54:28;;;;;;;3.17;2.88;;;18.90;99.90;;;19.75;100.00;97602.94;10438302;28;20248;-77
2023/08/25 01:59:32;;;;;;;6.80;3.30;;;19.00;99.90;;;19.68;100.00;97617.50;10442759;28;20300;-76
2023/08/25 02:04:36;;;;;;;3.90;2.72;;;18.90;99.90;;;19.67;100.00;97610.59;10446870;28;20757;-77
2023/08/25 02:09:39;;;;;;;3.15;2.75;;;18.90;99.90;;;19.68;100.00;97601.94;10439936;28;20328;-77
2023/08/25 02:14:44;;;;;;;3.45;3.08;;;18.90;99.90;;;19.59;100.00;97591.41;10435874;28;20253;-76
2023/08/25 02:19:47;;;;;;;4.00;2.88;;;18.80;99.90;;;19.58;100.00;97589.66;10440912;28;22152;-77
2023/08/25 02:24:51;;;;;;;2.90;2.67;;;18.80;99.90;;;19.51;100.00;97592.97;10432405;28;20238;-78
2023/08/25 02:29:55;;;;;;;3.63;2.92;;;18.70;99.90;;;19.42;100.00;97587.63;10434057;28;20234;-77
2023/08/25 02:34:58;;;;;;;3.35;2.80;;;18.60;99.90;;;19.25;100.00;97567.47;10444793;28;20248;-77
2023/08/25 02:40:04;;;;;;;3.95;2.70;;;18.40;99.90;;;19.32;100.00;97566.75;10437082;28;20237;-77
2023/08/25 02:45:09;;;;;;;3.83;3.00;;;18.60;99.90;;;19.34;100.00;97565.06;10439648;28;20224;-78
2023/08/25 02:50:14;;;;;;;5.75;3.33;;;18.60;99.90;;;19.41;100.00;97559.97;10437166;28;20233;-76
2023/08/25 02:55:19;;;;;;;3.00;2.72;;;18.60;99.90;;;19.24;100.00;97562.28;10436109;28;20232;-76
2023/08/25 03:00:25;;;;;;;3.75;3.30;;;18.50;99.90;;;19.38;100.00;97550.44;10436232;28;20229;-76
2023/08/25 03:05:28;;;;;;;3.38;3.08;;;18.60;99.90;;;19.48;100.00;97551.44;10435828;28;20217;-77
2023/08/25 03:10:31;;;;;;;4.10;3.28;;;18.60;99.90;;;19.46;100.00;97543.66;10432222;28;21710;-76
2023/08/25 03:15:39;;;;;;;3.58;3.28;;;18.70;99.90;;;19.54;100.00;97530.81;10440170;28;20221;-77
2023/08/25 03:20:42;;;;;;;6.22;3.20;;;18.70;99.90;;;19.50;100.00;97514.34;10441545;28;20224;-78
2023/08/25 03:25:46;;;;;;;4.10;3.38;;;18.70;99.90;;;19.44;100.00;97518.56;10447208;28;20232;-78
2023/08/25 03:30:53;;;;;;;3.58;3.28;;;18.60;99.90;;;19.42;100.00;97515.06;10436831;28;20233;-77
2023/08/25 03:35:56;;;;;;;4.78;3.45;;;18.60;99.90;;;19.38;100.00;97511.56;10441420;28;20224;-77
2023/08/25 03:41:00;;;;;;;3.75;3.45;;;18.60;99.90;;;19.38;100.00;97519.31;10441696;28;20252;-77
2023/08/25 03:46:05;;;;;;;4.38;3.20;;;18.60;99.90;;;19.26;100.00;97508.75;10436712;28;20616;-79
2023/08/25 03:51:08;;;;;;;5.20;3.42;;;18.40;99.90;;;19.28;100.00;97496.69;10440224;28;20221;-79
2023/08/25 03:56:11;;;;;;;4.00;3.60;;;18.50;99.90;;;19.30;100.00;97484.63;10435640;28;20450;-78
2023/08/25 04:01:16;;;;;;;3.42;3.13;;;18.50;99.90;;;19.34;100.00;97484.72;10439167;28;20221;-78
2023/08/25 04:06:19;;;;;;;4.57;3.60;;;18.50;99.90;;;19.30;100.00;97471.66;10447702;28;20233;-79
2023/08/25 04:11:22;;;;;;;3.47;3.17;;;18.50;99.90;;;19.35;100.00;97463.13;10448875;28;20227;-79
2023/08/25 04:16:27;;;;;;;4.13;3.00;;;18.50;99.90;;;19.29;100.00;97467.34;10449699;28;20231;-78
2023/08/25 04:21:30;;;;;;;3.42;3.10;;;18.40;99.90;;;19.29;100.00;97467.34;10446277;28;20229;-77
2023/08/25 04:26:33;;;;;;;3.60;3.30;;;18.50;99.90;;;19.31;100.00;97450.94;10448499;28;20224;-77
2023/08/25 04:31:38;;;;;;;3.95;3.60;;;18.50;99.90;;;19.38;100.00;97441.56;10439232;28;20304;-78
2023/08/25 04:36:42;;;;;;;5.28;3.58;;;18.50;99.90;;;19.26;100.00;97444.84;10441095;28;20227;-77
2023/08/25 04:41:45;;;;;;;4.18;3.50;;;18.40;99.90;;;19.07;100.00;97451.41;10439005;28;20234;-77
2023/08/25 04:46:49;;;;;;;4.97;3.50;;;18.30;99.90;;;19.08;100.00;97436.75;10439811;28;20244;-78
2023/08/25 04:51:53;;;;;;;4.10;3.58;;;18.40;99.90;;;19.21;100.00;97428.34;10432178;28;20244;-77
2023/08/25 04:56:56;;;;;;;3.78;3.47;;;18.40;99.90;;;19.24;100.00;97440.47;10440414;28;20311;-78
2023/08/25 05:02:01;;;;;;;3.25;3.03;;;18.40;99.90;;;19.11;100.00;97423.84;10427748;28;20238;-78
2023/08/25 05:07:04;;;;;;;3.95;3.60;;;18.30;99.90;;;19.11;100.00;97416.06;10445198;28;20737;-77
2023/08/25 05:12:09;;;;;;;4.00;3.67;;;18.40;99.90;;;19.30;100.00;97410.34;10437011;28;20225;-76
2023/08/25 05:17:14;;;;;;;4.45;3.83;;;18.50;99.90;;;19.30;100.00;97405.16;10446725;28;20670;-77
2023/08/25 05:22:17;;;;;;;5.55;3.97;;;18.50;99.90;;;19.44;100.00;97404.50;10453515;28;20694;-77
2023/08/25 05:27:21;;;;;;;3.75;3.35;;;18.60;99.90;;;19.73;100.00;97397.16;10453966;28;20221;-78
2023/08/25 05:32:25;;;;;;;4.85;3.92;;;18.90;99.90;;;20.33;100.00;97387.50;10443564;28;20312;-77
2023/08/25 05:37:29;;;;;;;3.60;3.30;;;19.30;99.90;;;21.02;100.00;97394.25;10436657;28;20248;-79
2023/08/25 05:42:33;;;;;;;4.93;2.92;;;19.80;99.90;;;21.65;98.94;97391.28;10449313;28;20308;-78
2023/08/25 05:47:38;;;;;;;3.42;3.13;;;20.40;99.90;;;22.45;95.15;97392.50;10439398;28;20310;-79
2023/08/25 05:52:44;;;;;;;4.60;2.70;;;21.00;99.90;;;23.12;89.44;97396.94;10436554;28;20571;-81
2023/08/25 05:57:47;;;;;;;3.38;2.88;;;22.10;99.90;;;23.81;87.83;97407.34;10446380;28;20225;-78
2023/08/25 06:02:52;;;;;;;4.18;3.00;;;22.80;99.90;;;24.19;84.17;97420.25;10442652;28;20243;-78
2023/08/25 06:07:56;;;;;;;4.40;2.78;;;22.70;99.90;;;24.09;85.25;97429.00;10447039;28;20221;-79
2023/08/25 06:12:59;;;;;;;4.57;3.08;;;22.40;99.90;;;23.94;84.77;97445.56;10445216;28;20223;-78
2023/08/25 06:18:05;;;;;;;3.20;2.90;;;22.20;99.90;;;23.94;85.83;97484.75;10440025;28;20491;-78
2023/08/25 06:23:09;;;;;;;3.00;2.80;;;22.10;99.90;;;23.70;87.75;97477.84;10436816;28;20233;-79
2023/08/25 06:28:13;;;;;;;5.28;3.00;;;22.00;99.90;;;23.58;87.72;97476.06;10450338;28;20316;-78
2023/08/25 06:33:17;;;;;;;3.65;3.35;;;21.80;99.90;;;23.31;90.87;97499.53;10436659;28;20229;-78
2023/08/25 06:38:21;;;;;;;4.85;3.60;;;21.80;99.90;;;23.14;94.14;97551.69;10431450;28;20243;-80
2023/08/25 06:43:24;;;;;;;4.03;3.35;;;21.70;99.90;;;22.92;95.13;97670.63;10429675;28;20229;-79
2023/08/25 06:48:29;;;;;;;4.97;3.30;;;21.60;99.90;;;22.55;96.03;97695.59;10435704;28;20239;-78
2023/08/25 06:53:32;;;;;;;4.53;4.13;;;21.40;99.90;;;22.52;96.57;97719.00;10444632;28;20486;-77
2023/08/25 06:58:36;;;;;;;5.60;4.07;;;21.40;99.90;;;22.40;100.00;97712.84;10440206;28;20581;-79
2023/08/25 07:03:41;;;;;;;5.85;3.72;;;21.40;99.90;;;22.02;100.00;97705.56;10430544;28;20626;-78
2023/08/25 07:08:44;;;;;;;5.20;4.47;;;21.10;99.90;;;21.86;100.00;97672.41;10438857;28;20232;-78
2023/08/25 07:13:48;;;;;;;6.57;4.57;;;21.00;99.90;;;21.69;100.00;97692.19;10436415;28;20221;-78
2023/08/25 07:18:52;;;;;;;5.25;4.75;;;21.00;99.90;;;21.71;100.00;97719.13;10435626;28;20235;-78
2023/08/25 07:23:56;;;;;;;7.07;4.95;;;21.00;99.90;;;21.72;100.00;97694.84;10441186;28;20221;-79
2023/08/25 07:28:59;;;;;;;5.07;4.65;;;21.10;99.90;;;21.86;100.00;97711.47;10441609;28;20254;-78
2023/08/25 07:34:04;;;;;;;6.22;5.18;;;21.20;99.90;;;22.03;100.00;97717.72;10435493;28;20229;-77
2023/08/25 07:39:08;;;;;;;5.18;4.55;;;21.40;99.90;;;22.15;100.00;97744.72;10442521;28;20232;-78
2023/08/25 07:44:11;;;;;;;5.07;4.55;;;21.40;99.90;;;22.18;100.00;97769.09;10444109;28;20231;-79
2023/08/25 07:49:15;;;;;;;5.13;4.63;;;21.40;99.90;;;22.14;100.00;97771.63;10436792;28;20229;-77
2023/08/25 07:54:19;;;;;;;4.78;4.38;;;21.40;99.90;;;22.26;100.00;97783.06;10443553;28;20235;-79
2023/08/25 07:59:23;;;;;;;5.07;4.60;;;21.50;99.90;;;22.51;100.00;97788.47;10447418;28;20246;-79
2023/08/25 08:04:30;;;;;;;5.60;5.13;;;21.70;99.90;;;22.36;100.00;97783.16;10445065;28;20249;-78
2023/08/25 08:09:33;;;;;;;5.60;5.03;;;21.60;99.90;;;22.36;100.00;97807.47;10448773;28;21033;-78
2023/08/25 08:14:37;;;;;;;5.63;5.10;;;21.50;99.90;;;22.25;100.00;97801.28;10443462;28;20243;-79
2023/08/25 08:19:50;;;;;;;7.03;5.40;;;21.40;99.90;;;22.28;100.00;97806.50;10447562;28;20225;-79
2023/08/25 08:24:53;;;;;;;6.32;5.18;;;21.40;99.90;;;22.36;100.00;97819.63;10453824;28;20225;-78
2023/08/25 08:29:56;;;;;;;6.55;5.72;;;21.60;99.90;;;22.27;100.00;97852.50;10446414;28;20236;-79
2023/08/25 08:35:03;;;;;;;5.78;5.13;;;21.40;99.90;;;22.19;100.00;97853.28;10446632;28;20225;-78
2023/08/25 08:40:09;;;;;;;5.13;4.70;;;21.30;99.90;;;21.98;100.00;97857.38;10444527;28;20280;-79
2023/08/25 08:45:13;;;;;;;6.55;4.90;;;21.20;99.90;;;21.68;100.00;97828.34;10447655;28;20233;-81
2023/08/25 08:50:19;;;;;;;5.45;4.95;;;21.10;99.90;;;21.58;100.00;97810.03;10475473;28;20224;-82
2023/08/25 08:55:22;;;;;;;4.97;4.47;;;21.00;99.90;;;21.48;100.00;97756.13;10473309;28;20242;-80
2023/08/25 09:00:26;;;;;;;5.45;4.45;;;21.00;99.90;;;21.33;100.00;97626.78;10455106;28;20229;-81
2023/08/25 09:05:35;;;;;;;5.15;4.72;;;20.80;99.90;;;21.15;100.00;97614.47;10445302;28;20256;-76
2023/08/25 09:10:39;;;;;;;6.00;5.20;;;20.80;99.90;;;21.12;100.00;97645.63;10429489;28;20234;-78
2023/08/25 09:15:43;;;;;;;5.35;4.85;;;20.80;99.90;;;21.29;100.00;97642.31;10437136;28;20233;-79
2023/08/25 09:20:47;;;;;;;5.53;5.00;;;20.90;99.90;;;21.27;100.00;97641.44;10442185;28;20312;-82
2023/08/25 09:25:53;;;;;;;8.00;5.50;;;20.80;99.90;;;21.35;100.00;97650.22;10438704;28;20233;-81
2023/08/25 09:30:56;;;;;;;6.32;5.60;;;20.80;99.90;;;21.49;100.00;97632.16;10442956;28;20233;-80
2023/08/25 09:36:05;;;;;;;5.40;4.90;;;20.90;99.90;;;21.64;100.00;97623.66;10454979;28;20252;-80
2023/08/25 09:41:11;;;;;;;5.13;4.35;;;21.10;99.90;;;22.01;100.00;97624.84;10459342;28;20225;-82
2023/08/25 09:46:15;;;;;;;5.57;5.00;;;21.40;99.90;;;22.13;100.00;97614.53;10455578;28;20229;-82
2023/08/25 09:51:20;;;;;;;4.85;4.20;;;21.50;99.90;;;22.35;100.00;97605.19;10456994;28;21814;-81
2023/08/25 09:56:24;;;;;;;4.75;4.22;;;21.80;99.90;;;22.66;100.00;97595.81;10454854;28;20232;-81
2023/08/25 10:01:27;;;;;;;4.20;3.90;;;22.20;99.90;;;22.87;98.64;97588.94;10454028;28;20304;-80
2023/08/25 10:06:38;;;;;;;4.85;4.35;;;22.40;99.90;;;22.98;100.00;97591.59;10452016;28;20231;-82
2023/08/25 10:11:48;;;;;;;4.68;4.30;;;22.60;99.90;;;23.39;98.82;97587.38;10434526;28;20311;-81
2023/08/25 10:16:53;;;;;;;4.63;4.22;;;22.80;99.90;;;23.60;98.22;97603.94;10435143;28;20226;-79
2023/08/25 10:21:57;;;;;;;4.68;4.28;;;23.00;99.90;;;23.66;92.97;97614.38;10426037;28;20605;-79
2023/08/25 10:27:02;;;;;;;4.97;3.95;;;23.10;99.90;;;23.89;88.15;97606.59;10432195;28;20232;-78
2023/08/25 10:32:07;;;;;;;5.00;4.50;;;23.30;99.90;;;23.48;89.61;97598.69;10431487;28;20232;-79
2023/08/25 10:37:14;;;;;;;4.07;3.67;;;23.20;99.90;;;23.71;89.65;97599.63;10433994;28;20232;-78
2023/08/25 10:42:26;;;;;;;4.32;4.00;;;23.20;99.90;;;23.83;86.68;97597.00;10428454;28;20229;-77
2023/08/25 10:47:30;;;;;;;5.22;4.72;;;23.40;99.90;;;23.75;88.27;97583.13;10433352;28;20239;-79
2023/08/25 10:52:34;;;;;;;5.57;3.92;;;23.30;99.90;;;23.99;88.71;97592.66;10438352;28;20224;-79
2023/08/25 10:57:42;;;;;;;4.55;4.15;;;23.40;99.90;;;24.51;85.98;97591.75;10441597;28;20628;-78
2023/08/25 11:02:46;;;;;;;4.50;4.10;;;23.80;99.90;;;24.73;86.98;97609.13;10442734;28;20616;-78
2023/08/25 11:07:51;;;;;;;4.20;3.80;;;24.10;99.90;;;24.92;87.98;97616.88;10426851;28;20236;-78
2023/08/25 11:12:55;;;;;;;4.20;3.80;;;24.30;99.90;;;25.14;89.61;97605.47;10440358;28;20252;-79
2023/08/25 11:18:12;;;;;;;3.75;3.45;;;24.50;99.90;;;25.44;83.63;97600.09;10428568;28;20323;-77
2023/08/25 11:23:19;;;;;;;3.53;3.08;;;24.70;99.90;;;25.76;83.66;97605.13;10443551;28;20243;-79
2023/08/25 11:28:27;;;;;;;11.07;10.02;;;25.00;99.90;;;25.90;77.12;97587.59;10443570;28;20232;-78
2023/08/25 11:33:32;;;;;;;4.45;4.05;;;25.20;99.90;;;25.87;79.83;97582.38;10434876;28;22749;-77
2023/08/25 11:38:37;;;;;;;3.65;3.35;;;25.10;99.90;;;26.02;81.82;97582.22;10429981;28;20231;-77
2023/08/25 11:43:40;;;;;;;3.72;3.42;;;25.20;99.90;;;26.27;79.63;97579.38;10439815;28;20229;-78
2023/08/25 11:48:44;;;;;;;3.92;3.50;;;25.40;99.90;;;26.59;78.93;97565.09;10436520;28;20334;-77
2023/08/25 11:53:48;;;;;;;3.63;3.33;;;25.70;99.90;;;26.68;78.63;97562.38;10433263;28;20248;-77
2023/08/25 11:58:51;;;;;;;3.75;3.40;;;25.70;99.90;;;26.64;78.59;97565.91;10433469;28;20228;-77
2023/08/25 12:03:59;;;;;;;3.70;3.30;;;25.70;99.90;;;26.85;77.68;97568.28;10435767;28;20239;-76
2023/08/25 12:09:04;;;;;;;3.35;3.05;;;25.90;99.90;;;26.77;79.59;97564.00;10430890;28;20228;-77
2023/08/25 12:14:07;;;;;;;3.38;3.08;;;25.80;99.90;;;26.61;81.83;97553.72;10433652;28;20221;-78
2023/08/25 12:19:11;;;;;;;3.78;3.42;;;25.70;99.90;;;26.41;82.07;97558.25;10428910;28;22009;-77
2023/08/25 12:24:16;;;;;;;3.20;3.00;;;25.50;99.90;;;26.43;84.32;97557.34;10423869;28;20228;-77
2023/08/25 12:29:21;;;;;;;3.85;3.20;;;25.60;99.90;;;26.46;83.99;97540.72;10428115;28;20243;-78
2023/08/25 12:34:24;;;;;;;3.35;3.05;;;25.60;99.90;;;26.71;82.01;97543.97;10427631;28;20227;-78
2023/08/25 12:39:29;;;;;;;3.67;3.35;;;25.60;99.90;;;26.49;79.99;97528.44;10427110;28;20228;-77
2023/08/25 12:44:32;;;;;;;3.67;3.38;;;25.60;99.90;;;26.61;79.52;97522.25;10429373;28;20224;-77
2023/08/25 12:49:35;;;;;;;3.92;3.63;;;25.70;99.90;;;26.72;74.76;97514.22;10424865;28;20229;-77
2023/08/25 12:54:40;;;;;;;4.70;3.35;;;25.70;99.90;;;26.76;69.17;97494.97;10423669;28;20315;-77
2023/08/25 12:59:43;;;;;;;3.95;3.38;;;25.80;99.90;;;26.64;67.09;97455.75;10430244;28;20607;-78
2023/08/25 13:04:46;;;;;;;3.97;3.67;;;25.70;99.90;;;26.60;66.11;97454.09;10436801;28;20274;-79
2023/08/25 13:09:51;;;;;;;4.00;3.70;;;25.70;99.90;;;26.41;67.59;97470.03;10439608;28;20232;-77
2023/08/25 13:14:54;;;;;;;5.10;3.90;;;25.50;99.90;;;26.04;70.51;97441.63;10433403;28;20931;-79
2023/08/25 13:19:57;;;;;;;4.05;3.70;;;25.20;99.90;;;25.94;71.71;97431.25;10425746;28;20239;-77
2023/08/25 13:25:02;;;;;;;4.00;3.60;;;25.10;99.90;;;25.84;72.76;97435.75;10428978;28;20224;-76
2023/08/25 13:30:09;;;;;;;4.45;4.05;;;25.00;99.90;;;25.85;74.17;97442.69;10429514;28;20228;-76
2023/08/25 13:35:13;;;;;;;4.13;3.67;;;25.00;99.90;;;25.99;73.21;97435.56;10421699;28;20237;-77
2023/08/25 13:40:17;;;;;;;4.07;3.70;;;25.20;99.90;;;26.26;74.88;97438.75;10425624;28;20228;-77
2023/08/25 13:45:21;;;;;;;4.80;4.30;;;25.50;99.90;;;26.49;74.66;97460.28;10424186;28;20236;-77
2023/08/25 13:50:24;;;;;;;4.43;4.00;;;25.70;99.90;;;26.68;72.27;97460.09;10427308;28;20247;-79
2023/08/25 13:55:29;;;;;;;4.22;3.92;;;25.90;99.90;;;26.95;74.88;97466.69;10429997;28;20229;-78
2023/08/25 14:00:32;;;;;;;4.60;4.20;;;26.20;99.90;;;27.18;73.40;97472.53;10421297;28;20287;-77
2023/08/25 14:05:36;;;;;;;5.57;4.25;;;26.40;99.90;;;27.31;72.92;97469.69;10445512;28;20225;-77
2023/08/25 14:10:40;;;;;;;4.45;4.05;;;26.50;99.90;;;27.50;71.80;97467.63;10441152;28;20245;-78
2023/08/25 14:15:44;;;;;;;4.53;3.97;;;26.60;99.90;;;27.60;71.39;97451.69;10432913;28;20228;-78
2023/08/25 14:20:47;;;;;;;4.05;3.65;;;26.70;99.90;;;27.65;70.61;97461.28;10423329;28;20251;-79
2023/08/25 14:25:51;;;;;;;4.80;4.28;;;26.70;99.90;;;27.78;71.05;97476.75;10434383;28;20236;-77
2023/08/25 14:30:54;;;;;;;4.20;3.80;;;26.80;99.90;;;27.85;70.07;97459.19;10434447;28;20368;-77
2023/08/25 14:35:58;;;;;;;4.30;3.92;;;26.70;99.90;;;27.84;68.70;97474.09;10430735;28;20467;-78
2023/08/25 14:41:06;;;;;;;5.72;4.43;;;26.80;99.90;;;27.94;65.21;97473.91;10439204;28;20220;-78
2023/08/25 14:46:10;;;;;;;4.90;4.50;;;26.90;99.90;;;28.18;62.38;97476.06;10426359;28;20235;-76
2023/08/25 14:51:15;;;;;;;4.95;4.55;;;27.10;99.90;;;28.04;63.50;97488.59;10418852;28;20229;-77
2023/08/25 14:56:20;;;;;;;4.70;4.30;;;27.00;99.90;;;28.09;65.58;97481.50;10422303;28;20770;-77
2023/08/25 15:01:23;;;;;;;5.35;4.95;;;27.10;99.90;;;28.28;65.19;97474.13;10429066;28;20224;-77
2023/08/25 15:06:27;;;;;;;7.25;6.25;;;27.10;99.90;;;28.34;64.58;97455.59;10425074;28;20983;-77
2023/08/25 15:11:31;;;;;;;6.57;5.68;;;27.20;99.90;;;28.16;64.85;97456.84;10424609;28;20291;-77
2023/08/25 15:16:34;;;;;;;7.55;6.95;;;27.20;99.90;;;28.19;61.88;97448.88;10425879;28;20280;-77
2023/08/25 15:21:38;;;;;;;7.78;5.72;;;27.10;99.90;;;28.03;62.54;97450.94;10424061;28;20490;-78
2023/08/25 15:26:42;;;;;;;6.95;5.95;;;27.10;99.90;;;27.90;64.96;97454.72;10421025;28;20232;-77
2023/08/25 15:31:45;;;;;;;6.30;5.70;;;26.90;99.90;;;27.88;66.02;97445.97;10425611;28;20236;-78
2023/08/25 15:36:49;;;;;;;6.40;5.80;;;26.90;99.90;;;27.85;62.90;97436.41;10412244;28;20232;-77
2023/08/25 15:41:53;;;;;;;7.15;5.28;;;26.90;99.90;;;27.73;65.04;97417.31;10419325;28;20750;-77
2023/08/25 15:46:56;;;;;;;6.13;5.30;;;26.70;99.90;;;27.61;65.96;97386.91;10432596;28;20236;-77
2023/08/25 15:52:00;;;;;;;6.18;5.55;;;26.70;99.90;;;27.63;66.36;97387.75;10424378;28;20231;-78
2023/08/25 15:57:05;;;;;;;6.15;5.30;;;26.80;99.90;;;27.67;67.18;97384.19;10435373;28;20228;-78
2023/08/25 16:02:08;;;;;;;5.70;5.20;;;26.70;99.90;;;27.60;66.57;97372.91;10429460;28;20218;-78
2023/08/25 16:07:11;;;;;;;5.93;5.32;;;26.70;99.90;;;27.58;68.02;97358.94;10430438;28;20778;-77
2023/08/25 16:12:16;;;;;;;6.25;5.65;;;26.70;99.90;;;27.51;68.28;97366.97;10421863;28;20319;-77
2023/08/25 16:17:19;;;;;;;6.07;5.57;;;26.60;99.90;;;27.45;68.02;97372.34;10431186;28;20957;-77
2023/08/25 16:22:22;;;;;;;6.97;5.55;;;26.50;99.90;;;27.25;71.00;97376.16;10428299;28;20255;-78
2023/08/25 16:27:29;;;;;;;5.97;5.40;;;26.40;99.90;;;27.09;72.22;97369.41;10429418;28;20244;-78
2023/08/25 16:32:33;;;;;;;6.53;5.85;;;26.20;99.90;;;26.91;72.42;97370.59;10433683;28;20602;-77
2023/08/25 16:37:37;;;;;;;5.70;5.20;;;26.00;99.90;;;26.81;73.89;97395.22;10415627;28;20255;-77
2023/08/25 16:42:41;;;;;;;6.00;5.60;;;25.90;99.90;;;26.59;74.38;97392.06;10410903;28;20707;-81
2023/08/25 16:47:44;;;;;;;6.07;5.53;;;25.60;99.90;;;26.67;76.99;97388.44;10417079;28;20371;-78
2023/08/25 16:52:48;;;;;;;7.15;6.10;;;25.70;99.90;;;26.56;79.19;97379.00;10422324;28;20227;-78
2023/08/25 16:57:52;;;;;;;5.63;5.13;;;25.70;99.90;;;26.54;79.30;97386.00;10420020;28;20615;-79
2023/08/25 17:02:57;;;;;;;6.72;5.97;;;25.60;99.90;;;26.63;79.50;97378.00;10419523;28;20270;-77
2023/08/25 17:08:01;;;;;;;6.50;5.90;;;25.70;99.90;;;26.59;78.10;97379.81;10417888;28;20278;-77
2023/08/25 17:13:09;;;;;;;7.28;6.60;;;25.70;99.90;;;26.45;78.67;97373.84;10429224;28;20763;-77
2023/08/25 17:18:12;;;;;;;7.90;6.70;;;25.60;99.90;;;26.34;80.45;97357.41;10417234;28;21301;-77
2023/08/25 17:23:15;;;;;;;7.88;6.43;;;25.50;99.90;;;26.23;82.06;97360.16;10432685;28;20689;-78
2023/08/25 17:28:20;;;;;;;7.43;6.72;;;25.30;99.90;;;26.05;83.31;97351.66;10437690;28;20220;-78
2023/08/25 17:33:23;;;;;;;7.13;6.43;;;25.10;99.90;;;25.93;85.66;97357.06;10437848;28;20963;-78
2023/08/25 17:38:26;;;;;;;7.50;6.78;;;25.00;99.90;;;25.73;87.71;97354.66;10435998;28;20225;-78
2023/08/25 17:43:31;;;;;;;6.90;6.40;;;24.80;99.90;;;25.59;89.30;97356.53;10434056;28;20231;-78
2023/08/25 17:48:34;;;;;;;7.70;6.68;;;24.60;99.90;;;25.45;90.76;97354.06;10433149;28;20233;-78
2023/08/25 17:53:38;;;;;;;6.38;5.78;;;24.50;99.90;;;25.30;91.86;97359.47;10435476;28;20221;-78
2023/08/25 17:58:42;;;;;;;7.07;6.40;;;24.30;99.90;;;25.24;93.19;97372.56;10435633;28;20235;-77
2023/08/25 18:03:45;;;;;;;7.88;7.18;;;24.30;99.90;;;25.10;94.76;97373.56;10431676;28;21042;-78
2023/08/25 18:08:49;;;;;;;7.45;6.85;;;24.20;99.90;;;24.97;94.31;97364.06;10433412;28;20235;-79
2023/08/25 18:13:57;;;;;;;7.30;6.38;;;24.00;99.90;;;24.83;95.69;97379.00;10430567;28;20224;-78
2023/08/25 18:19:00;;;;;;;7.80;6.95;;;23.90;99.90;;;24.67;96.74;97378.25;10432411;28;20228;-77
2023/08/25 18:24:04;;;;;;;7.82;7.13;;;23.70;99.90;;;24.49;97.54;97390.56;10440233;28;20224;-78
2023/08/25 18:29:10;;;;;;;8.20;7.60;;;23.60;99.90;;;24.43;98.90;97394.91;10429009;28;20236;-77
2023/08/25 18:34:13;;;;;;;8.13;7.32;;;23.50;99.90;;;24.36;99.53;97393.19;10432795;28;20224;-79
2023/08/25 18:39:16;;;;;;;6.88;6.35;;;23.40;99.90;;;24.18;100.00;97402.88;10437199;28;20279;-79
2023/08/25 18:44:21;;;;;;;8.52;7.72;;;23.20;99.90;;;24.00;100.00;97400.31;10440784;28;20316;-79
2023/08/25 18:49:24;;;;;;;8.02;7.20;;;23.10;99.90;;;23.95;100.00;97396.84;10433210;28;20229;-78
2023/08/25 18:54:27;;;;;;;8.63;7.68;;;23.00;99.90;;;23.90;100.00;97415.16;10439935;28;20276;-79
2023/08/25 18:59:32;;;;;;;8.13;7.43;;;23.00;99.90;;;23.74;100.00;97403.88;10444008;28;20247;-78
2023/08/25 19:04:35;;;;;;;8.10;7.30;;;22.80;99.90;;;23.68;100.00;97388.19;10450198;28;20616;-78
2023/08/25 19:09:40;;;;;;;7.68;6.90;;;22.80;99.90;;;23.57;100.00;97375.16;10449194;28;20232;-79
2023/08/25 19:14:44;;;;;;;8.10;7.40;;;22.60;99.90;;;23.52;100.00;97420.41;10450517;28;20255;-79
2023/08/25 19:19:48;;;;;;;7.38;6.68;;;22.60;99.90;;;23.42;100.00;97431.72;10457111;28;20252;-78
2023/08/25 19:24:51;;;;;;;8.02;7.32;;;22.50;99.90;;;23.42;100.00;97413.47;10452492;28;20594;-78
2023/08/25 19:29:55;;;;;;;8.93;8.15;;;22.50;99.90;;;23.35;100.00;97400.44;10452912;28;20232;-78
2023/08/25 19:35:00;;;;;;;8.55;7.72;;;22.40;99.90;;;23.19;100.00;97414.34;10440333;28;20217;-78
2023/08/25 19:40:10;;;;;;;9.30;8.40;;;22.30;99.90;;;23.17;100.00;97436.94;10430550;28;20231;-77
2023/08/25 19:45:15;;;;;;;8.68;7.63;;;22.30;99.90;;;23.09;100.00;97443.88;10432142;28;20787;-79
2023/08/25 19:50:18;;;;;;;7.90;7.07;;;22.20;99.90;;;23.01;100.00;97445.63;10424718;28;20257;-79
2023/08/25 19:55:22;;;;;;;8.80;8.02;;;22.20;99.90;;;22.92;100.00;97444.72;10434974;28;20241;-80
2023/08/25 20:00:26;;;;;;;8.23;7.40;;;22.00;99.90;;;22.81;100.00;97441.22;10422917;28;20642;-79
2023/08/25 20:05:29;;;;;;;7.93;7.15;;;22.00;99.90;;;22.79;100.00;97450.78;10439497;28;20244;-79
2023/08/25 20:10:33;;;;;;;7.40;6.78;;;21.90;99.90;;;22.77;100.00;97457.69;10429373;28;20312;-80
2023/08/25 20:15:37;;;;;;;7.65;6.88;;;21.90;99.90;;;22.67;100.00;97482.88;10425953;28;20268;-79
2023/08/25 20:20:41;;;;;;;7.95;7.25;;;21.90;99.90;;;22.58;100.00;97414.25;10428629;28;20327;-79
2023/08/25 20:25:45;;;;;;;7.70;7.07;;;21.70;99.90;;;22.17;100.00;97405.41;10429861;28;20224;-76
2023/08/25 20:30:50;;;;;;;8.98;8.18;;;21.50;99.90;;;21.98;100.00;97435.69;10428493;28;20232;-77
2023/08/25 20:35:57;;;;;;;8.88;8.07;;;21.40;99.90;;;21.75;100.00;97416.50;10414886;28;20224;-77
2023/08/25 20:41:03;;;;;;;10.30;9.25;;;21.30;99.90;;;21.78;100.00;97398.28;10422456;28;20224;-77
2023/08/25 20:46:15;;;;;;;11.20;10.00;;;21.30;99.90;;;21.61;100.00;97395.59;10429477;28;20271;-77
2023/08/25 20:51:21;;;;;;;10.73;9.60;;;21.10;99.90;;;21.52;100.00;97418.94;10427929;28;20240;-76
2023/08/25 20:56:27;;;;;;;10.40;9.38;;;21.00;99.90;;;21.48;100.00;97418.03;10428657;28;20231;-77